sensor_id;sensor_type;location;lat;lon;timestamp;P1;durP1;ratioP1;P2;durP2;ratioP2
18510;SDS011;9384;48.044;11.616;2022-11-23T00:01:26;3.90;;;2.37;;
18510;SDS011;9384;48.044;11.616;2022-11-23T00:03:54;2.60;;;2.40;;
18510;SDS011;9384;48.044;11.616;2022-11-23T00:06:22;3.93;;;3.40;;
18510;SDS011;9384;48.044;11.616;2022-11-23T00:08:50;3.70;;;2.27;;
18510;SDS011;9384;48.044;11.616;2022-11-23T00:11:19;5.93;;;2.80;;
18510;SDS011;9384;48.044;11.616;2022-11-23T00:13:47;3.93;;;2.60;;
18510;SDS011;9384;48.044;11.616;2022-11-23T00:16:14;3.17;;;2.77;;
18510;SDS011;9384;48.044;11.616;2022-11-23T00:18:44;2.90;;;2.70;;
18510;SDS011;9384;48.044;11.616;2022-11-23T00:21:11;3.73;;;2.63;;
18510;SDS011;9384;48.044;11.616;2022-11-23T00:23:39;2.60;;;2.50;;
18510;SDS011;9384;48.044;11.616;2022-11-23T00:26:06;4.87;;;2.60;;
18510;SDS011;9384;48.044;11.616;2022-11-23T00:28:34;2.63;;;2.53;;
18510;SDS011;9384;48.044;11.616;2022-11-23T00:31:04;4.87;;;2.50;;
18510;SDS011;9384;48.044;11.616;2022-11-23T00:33:30;5.27;;;2.60;;
18510;SDS011;9384;48.044;11.616;2022-11-23T00:35:59;2.97;;;2.30;;
18510;SDS011;9384;48.044;11.616;2022-11-23T00:38:26;4.37;;;2.33;;
18510;SDS011;9384;48.044;11.616;2022-11-23T00:40:57;5.90;;;2.63;;
18510;SDS011;9384;48.044;11.616;2022-11-23T00:43:25;5.13;;;2.43;;
18510;SDS011;9384;48.044;11.616;2022-11-23T00:46:00;3.30;;;2.63;;
18510;SDS011;9384;48.044;11.616;2022-11-23T00:48:28;5.17;;;2.60;;
18510;SDS011;9384;48.044;11.616;2022-11-23T00:50:55;2.37;;;2.27;;
18510;SDS011;9384;48.044;11.616;2022-11-23T00:53:23;2.67;;;2.47;;
18510;SDS011;9384;48.044;11.616;2022-11-23T00:55:50;7.03;;;2.70;;
18510;SDS011;9384;48.044;11.616;2022-11-23T00:58:18;2.63;;;2.43;;
18510;SDS011;9384;48.044;11.616;2022-11-23T01:00:45;3.47;;;2.50;;
18510;SDS011;9384;48.044;11.616;2022-11-23T01:03:12;3.57;;;2.80;;
18510;SDS011;9384;48.044;11.616;2022-11-23T01:05:38;3.37;;;2.30;;
18510;SDS011;9384;48.044;11.616;2022-11-23T01:08:05;2.60;;;2.40;;
18510;SDS011;9384;48.044;11.616;2022-11-23T01:10:34;4.57;;;2.50;;
18510;SDS011;9384;48.044;11.616;2022-11-23T01:13:01;4.20;;;2.40;;
18510;SDS011;9384;48.044;11.616;2022-11-23T01:15:28;2.00;;;1.90;;
18510;SDS011;9384;48.044;11.616;2022-11-23T01:17:55;2.47;;;2.10;;
18510;SDS011;9384;48.044;11.616;2022-11-23T01:20:21;3.40;;;2.20;;
18510;SDS011;9384;48.044;11.616;2022-11-23T01:22:50;2.43;;;2.17;;
18510;SDS011;9384;48.044;11.616;2022-11-23T01:25:17;3.77;;;2.07;;
18510;SDS011;9384;48.044;11.616;2022-11-23T01:27:45;3.43;;;2.20;;
18510;SDS011;9384;48.044;11.616;2022-11-23T01:30:12;3.40;;;2.37;;
18510;SDS011;9384;48.044;11.616;2022-11-23T01:32:39;4.10;;;2.10;;
18510;SDS011;9384;48.044;11.616;2022-11-23T01:35:06;2.17;;;2.13;;
18510;SDS011;9384;48.044;11.616;2022-11-23T01:37:33;2.97;;;2.30;;
18510;SDS011;9384;48.044;11.616;2022-11-23T01:40:00;2.43;;;2.10;;
18510;SDS011;9384;48.044;11.616;2022-11-23T01:42:38;4.47;;;2.37;;
18510;SDS011;9384;48.044;11.616;2022-11-23T01:48:00;3.97;;;2.37;;
18510;SDS011;9384;48.044;11.616;2022-11-23T01:50:29;7.13;;;2.53;;
18510;SDS011;9384;48.044;11.616;2022-11-23T01:52:56;2.57;;;2.37;;
18510;SDS011;9384;48.044;11.616;2022-11-23T01:55:23;2.83;;;2.33;;
18510;SDS011;9384;48.044;11.616;2022-11-23T01:57:51;2.40;;;2.30;;
18510;SDS011;9384;48.044;11.616;2022-11-23T02:00:19;2.60;;;2.40;;
18510;SDS011;9384;48.044;11.616;2022-11-23T02:02:48;8.47;;;2.33;;
18510;SDS011;9384;48.044;11.616;2022-11-23T02:05:21;4.10;;;2.80;;
18510;SDS011;9384;48.044;11.616;2022-11-23T02:07:52;7.13;;;2.40;;
18510;SDS011;9384;48.044;11.616;2022-11-23T02:10:19;3.23;;;2.50;;
18510;SDS011;9384;48.044;11.616;2022-11-23T02:12:47;4.47;;;2.43;;
18510;SDS011;9384;48.044;11.616;2022-11-23T02:15:14;7.30;;;2.47;;
18510;SDS011;9384;48.044;11.616;2022-11-23T02:17:41;5.53;;;2.70;;
18510;SDS011;9384;48.044;11.616;2022-11-23T02:20:11;5.17;;;2.70;;
18510;SDS011;9384;48.044;11.616;2022-11-23T02:22:41;4.60;;;2.87;;
18510;SDS011;9384;48.044;11.616;2022-11-23T02:25:18;2.40;;;2.30;;
18510;SDS011;9384;48.044;11.616;2022-11-23T02:27:51;2.27;;;2.17;;
18510;SDS011;9384;48.044;11.616;2022-11-23T02:30:19;4.10;;;2.40;;
18510;SDS011;9384;48.044;11.616;2022-11-23T02:32:46;4.60;;;2.23;;
18510;SDS011;9384;48.044;11.616;2022-11-23T02:35:13;2.30;;;2.10;;
18510;SDS011;9384;48.044;11.616;2022-11-23T02:37:39;9.37;;;2.80;;
18510;SDS011;9384;48.044;11.616;2022-11-23T02:40:10;4.57;;;2.10;;
18510;SDS011;9384;48.044;11.616;2022-11-23T02:42:45;2.57;;;2.30;;
18510;SDS011;9384;48.044;11.616;2022-11-23T02:45:17;2.57;;;2.00;;
18510;SDS011;9384;48.044;11.616;2022-11-23T02:47:51;1.93;;;1.90;;
18510;SDS011;9384;48.044;11.616;2022-11-23T02:50:18;4.47;;;2.40;;
18510;SDS011;9384;48.044;11.616;2022-11-23T02:52:45;3.80;;;1.93;;
18510;SDS011;9384;48.044;11.616;2022-11-23T02:55:12;2.20;;;2.07;;
18510;SDS011;9384;48.044;11.616;2022-11-23T02:57:39;4.00;;;1.77;;
18510;SDS011;9384;48.044;11.616;2022-11-23T03:00:06;2.30;;;1.93;;
18510;SDS011;9384;48.044;11.616;2022-11-23T03:02:35;2.00;;;1.80;;
18510;SDS011;9384;48.044;11.616;2022-11-23T03:05:02;2.23;;;2.13;;
18510;SDS011;9384;48.044;11.616;2022-11-23T03:07:29;2.30;;;2.20;;
18510;SDS011;9384;48.044;11.616;2022-11-23T03:09:56;1.80;;;1.80;;
18510;SDS011;9384;48.044;11.616;2022-11-23T03:12:23;2.23;;;2.03;;
18510;SDS011;9384;48.044;11.616;2022-11-23T03:14:49;5.90;;;2.53;;
18510;SDS011;9384;48.044;11.616;2022-11-23T03:17:16;2.30;;;2.00;;
18510;SDS011;9384;48.044;11.616;2022-11-23T03:19:44;2.00;;;1.83;;
18510;SDS011;9384;48.044;11.616;2022-11-23T03:22:11;4.03;;;2.10;;
18510;SDS011;9384;48.044;11.616;2022-11-23T03:24:38;2.03;;;1.77;;
18510;SDS011;9384;48.044;11.616;2022-11-23T03:27:19;2.00;;;1.77;;
18510;SDS011;9384;48.044;11.616;2022-11-23T03:29:46;1.77;;;1.70;;
18510;SDS011;9384;48.044;11.616;2022-11-23T03:32:12;3.40;;;1.60;;
18510;SDS011;9384;48.044;11.616;2022-11-23T03:34:39;2.10;;;1.60;;
18510;SDS011;9384;48.044;11.616;2022-11-23T03:37:07;3.00;;;2.20;;
18510;SDS011;9384;48.044;11.616;2022-11-23T03:39:34;1.93;;;1.83;;
18510;SDS011;9384;48.044;11.616;2022-11-23T03:42:01;1.90;;;1.77;;
18510;SDS011;9384;48.044;11.616;2022-11-23T03:44:27;4.47;;;1.80;;
18510;SDS011;9384;48.044;11.616;2022-11-23T03:46:54;2.20;;;1.73;;
18510;SDS011;9384;48.044;11.616;2022-11-23T03:49:21;4.23;;;2.40;;
18510;SDS011;9384;48.044;11.616;2022-11-23T03:51:48;4.03;;;2.20;;
18510;SDS011;9384;48.044;11.616;2022-11-23T03:54:16;2.73;;;2.50;;
18510;SDS011;9384;48.044;11.616;2022-11-23T03:56:43;2.40;;;2.20;;
18510;SDS011;9384;48.044;11.616;2022-11-23T03:59:09;2.37;;;2.17;;
18510;SDS011;9384;48.044;11.616;2022-11-23T04:01:36;3.40;;;2.07;;
18510;SDS011;9384;48.044;11.616;2022-11-23T04:04:03;4.00;;;2.67;;
18510;SDS011;9384;48.044;11.616;2022-11-23T04:06:30;3.63;;;2.00;;
18510;SDS011;9384;48.044;11.616;2022-11-23T04:08:57;3.33;;;1.97;;
18510;SDS011;9384;48.044;11.616;2022-11-23T04:11:25;6.57;;;2.10;;
18510;SDS011;9384;48.044;11.616;2022-11-23T04:13:51;7.37;;;1.70;;
18510;SDS011;9384;48.044;11.616;2022-11-23T04:16:18;4.73;;;1.60;;
18510;SDS011;9384;48.044;11.616;2022-11-23T04:18:45;4.43;;;2.10;;
18510;SDS011;9384;48.044;11.616;2022-11-23T04:21:12;3.43;;;1.57;;
18510;SDS011;9384;48.044;11.616;2022-11-23T04:23:39;4.80;;;1.80;;
18510;SDS011;9384;48.044;11.616;2022-11-23T04:26:05;3.67;;;1.70;;
18510;SDS011;9384;48.044;11.616;2022-11-23T04:28:33;4.00;;;1.80;;
18510;SDS011;9384;48.044;11.616;2022-11-23T04:31:00;2.93;;;1.47;;
18510;SDS011;9384;48.044;11.616;2022-11-23T04:33:27;4.73;;;1.90;;
18510;SDS011;9384;48.044;11.616;2022-11-23T04:35:55;2.50;;;1.60;;
18510;SDS011;9384;48.044;11.616;2022-11-23T04:38:22;3.23;;;2.00;;
18510;SDS011;9384;48.044;11.616;2022-11-23T04:40:50;4.27;;;1.80;;
18510;SDS011;9384;48.044;11.616;2022-11-23T04:43:17;5.60;;;1.90;;
18510;SDS011;9384;48.044;11.616;2022-11-23T04:45:45;2.37;;;2.17;;
18510;SDS011;9384;48.044;11.616;2022-11-23T04:48:12;5.60;;;2.20;;
18510;SDS011;9384;48.044;11.616;2022-11-23T04:50:38;5.00;;;1.97;;
18510;SDS011;9384;48.044;11.616;2022-11-23T04:53:06;3.07;;;2.00;;
18510;SDS011;9384;48.044;11.616;2022-11-23T04:55:33;2.30;;;2.00;;
18510;SDS011;9384;48.044;11.616;2022-11-23T04:58:00;3.93;;;2.20;;
18510;SDS011;9384;48.044;11.616;2022-11-23T05:00:27;9.93;;;2.00;;
18510;SDS011;9384;48.044;11.616;2022-11-23T05:02:57;2.20;;;2.10;;
18510;SDS011;9384;48.044;11.616;2022-11-23T05:05:24;2.30;;;2.10;;
18510;SDS011;9384;48.044;11.616;2022-11-23T05:07:51;2.33;;;2.23;;
18510;SDS011;9384;48.044;11.616;2022-11-23T05:10:18;4.90;;;2.43;;
18510;SDS011;9384;48.044;11.616;2022-11-23T05:12:45;4.80;;;2.73;;
18510;SDS011;9384;48.044;11.616;2022-11-23T05:15:12;2.30;;;1.97;;
18510;SDS011;9384;48.044;11.616;2022-11-23T05:17:39;3.03;;;1.73;;
18510;SDS011;9384;48.044;11.616;2022-11-23T05:20:08;4.17;;;1.57;;
18510;SDS011;9384;48.044;11.616;2022-11-23T05:22:35;2.37;;;2.07;;
18510;SDS011;9384;48.044;11.616;2022-11-23T05:25:02;3.00;;;2.00;;
18510;SDS011;9384;48.044;11.616;2022-11-23T05:27:29;3.10;;;2.00;;
18510;SDS011;9384;48.044;11.616;2022-11-23T05:29:56;2.67;;;1.80;;
18510;SDS011;9384;48.044;11.616;2022-11-23T05:32:23;1.87;;;1.77;;
18510;SDS011;9384;48.044;11.616;2022-11-23T05:34:49;4.90;;;1.90;;
18510;SDS011;9384;48.044;11.616;2022-11-23T05:37:17;2.30;;;2.00;;
18510;SDS011;9384;48.044;11.616;2022-11-23T05:39:44;5.47;;;1.80;;
18510;SDS011;9384;48.044;11.616;2022-11-23T05:42:11;3.87;;;1.67;;
18510;SDS011;9384;48.044;11.616;2022-11-23T05:44:38;6.00;;;2.27;;
18510;SDS011;9384;48.044;11.616;2022-11-23T05:47:04;8.97;;;1.97;;
18510;SDS011;9384;48.044;11.616;2022-11-23T05:49:32;2.90;;;1.90;;
18510;SDS011;9384;48.044;11.616;2022-11-23T05:51:58;3.70;;;1.70;;
18510;SDS011;9384;48.044;11.616;2022-11-23T05:54:27;6.00;;;1.80;;
18510;SDS011;9384;48.044;11.616;2022-11-23T05:56:53;1.63;;;1.53;;
18510;SDS011;9384;48.044;11.616;2022-11-23T05:59:20;3.93;;;1.50;;
18510;SDS011;9384;48.044;11.616;2022-11-23T06:01:47;4.43;;;1.83;;
18510;SDS011;9384;48.044;11.616;2022-11-23T06:04:14;2.57;;;1.30;;
18510;SDS011;9384;48.044;11.616;2022-11-23T06:06:41;1.53;;;1.53;;
18510;SDS011;9384;48.044;11.616;2022-11-23T06:09:07;4.27;;;1.50;;
18510;SDS011;9384;48.044;11.616;2022-11-23T06:11:36;6.47;;;1.53;;
18510;SDS011;9384;48.044;11.616;2022-11-23T06:14:03;6.77;;;1.57;;
18510;SDS011;9384;48.044;11.616;2022-11-23T06:16:30;1.50;;;1.40;;
18510;SDS011;9384;48.044;11.616;2022-11-23T06:18:57;6.17;;;1.63;;
18510;SDS011;9384;48.044;11.616;2022-11-23T06:21:24;3.60;;;1.60;;
18510;SDS011;9384;48.044;11.616;2022-11-23T06:23:51;2.40;;;1.77;;
18510;SDS011;9384;48.044;11.616;2022-11-23T06:26:17;3.60;;;1.40;;
18510;SDS011;9384;48.044;11.616;2022-11-23T06:28:46;1.60;;;1.50;;
18510;SDS011;9384;48.044;11.616;2022-11-23T06:31:13;2.77;;;1.33;;
18510;SDS011;9384;48.044;11.616;2022-11-23T06:33:40;1.60;;;1.50;;
18510;SDS011;9384;48.044;11.616;2022-11-23T06:36:08;4.53;;;1.40;;
18510;SDS011;9384;48.044;11.616;2022-11-23T06:38:35;1.63;;;1.60;;
18510;SDS011;9384;48.044;11.616;2022-11-23T06:41:02;4.87;;;2.87;;
18510;SDS011;9384;48.044;11.616;2022-11-23T06:43:30;1.80;;;1.70;;
18510;SDS011;9384;48.044;11.616;2022-11-23T06:45:58;4.87;;;1.73;;
18510;SDS011;9384;48.044;11.616;2022-11-23T06:48:28;1.80;;;1.67;;
18510;SDS011;9384;48.044;11.616;2022-11-23T06:50:56;1.57;;;1.47;;
18510;SDS011;9384;48.044;11.616;2022-11-23T06:53:24;12.13;;;1.80;;
18510;SDS011;9384;48.044;11.616;2022-11-23T06:55:50;4.57;;;1.80;;
18510;SDS011;9384;48.044;11.616;2022-11-23T06:58:17;3.90;;;1.73;;
18510;SDS011;9384;48.044;11.616;2022-11-23T07:00:44;4.93;;;1.60;;
18510;SDS011;9384;48.044;11.616;2022-11-23T07:03:13;2.23;;;1.80;;
18510;SDS011;9384;48.044;11.616;2022-11-23T07:05:45;2.23;;;1.80;;
18510;SDS011;9384;48.044;11.616;2022-11-23T07:08:11;4.00;;;2.37;;
18510;SDS011;9384;48.044;11.616;2022-11-23T07:10:38;3.13;;;2.77;;
18510;SDS011;9384;48.044;11.616;2022-11-23T07:13:05;4.73;;;2.87;;
18510;SDS011;9384;48.044;11.616;2022-11-23T07:15:33;3.90;;;3.03;;
18510;SDS011;9384;48.044;11.616;2022-11-23T07:18:01;4.27;;;3.30;;
18510;SDS011;9384;48.044;11.616;2022-11-23T07:20:29;7.27;;;2.90;;
18510;SDS011;9384;48.044;11.616;2022-11-23T07:22:59;7.07;;;2.13;;
18510;SDS011;9384;48.044;11.616;2022-11-23T07:25:26;3.90;;;3.30;;
18510;SDS011;9384;48.044;11.616;2022-11-23T07:27:54;3.97;;;2.80;;
18510;SDS011;9384;48.044;11.616;2022-11-23T07:30:21;1.70;;;1.60;;
18510;SDS011;9384;48.044;11.616;2022-11-23T07:32:48;1.67;;;1.50;;
18510;SDS011;9384;48.044;11.616;2022-11-23T07:35:15;4.83;;;2.60;;
18510;SDS011;9384;48.044;11.616;2022-11-23T07:37:43;2.70;;;2.03;;
18510;SDS011;9384;48.044;11.616;2022-11-23T07:40:10;2.73;;;1.53;;
18510;SDS011;9384;48.044;11.616;2022-11-23T07:42:37;5.03;;;1.33;;
18510;SDS011;9384;48.044;11.616;2022-11-23T07:45:05;2.50;;;1.40;;
18510;SDS011;9384;48.044;11.616;2022-11-23T07:47:33;1.50;;;1.43;;
18510;SDS011;9384;48.044;11.616;2022-11-23T07:50:00;2.83;;;1.70;;
18510;SDS011;9384;48.044;11.616;2022-11-23T07:52:27;1.40;;;1.30;;
18510;SDS011;9384;48.044;11.616;2022-11-23T07:54:55;1.60;;;1.00;;
18510;SDS011;9384;48.044;11.616;2022-11-23T07:57:21;2.53;;;1.33;;
18510;SDS011;9384;48.044;11.616;2022-11-23T07:59:48;2.20;;;0.90;;
18510;SDS011;9384;48.044;11.616;2022-11-23T08:02:15;1.30;;;1.13;;
18510;SDS011;9384;48.044;11.616;2022-11-23T08:04:42;6.43;;;1.17;;
18510;SDS011;9384;48.044;11.616;2022-11-23T08:07:09;1.40;;;1.23;;
18510;SDS011;9384;48.044;11.616;2022-11-23T08:09:36;1.37;;;1.27;;
18510;SDS011;9384;48.044;11.616;2022-11-23T08:12:04;3.23;;;1.73;;
18510;SDS011;9384;48.044;11.616;2022-11-23T08:14:31;5.63;;;1.70;;
18510;SDS011;9384;48.044;11.616;2022-11-23T08:16:58;3.23;;;2.13;;
18510;SDS011;9384;48.044;11.616;2022-11-23T08:19:25;2.50;;;1.80;;
18510;SDS011;9384;48.044;11.616;2022-11-23T08:21:52;5.43;;;1.60;;
18510;SDS011;9384;48.044;11.616;2022-11-23T08:24:18;2.87;;;1.53;;
18510;SDS011;9384;48.044;11.616;2022-11-23T08:26:45;2.33;;;1.43;;
18510;SDS011;9384;48.044;11.616;2022-11-23T08:29:13;1.83;;;1.60;;
18510;SDS011;9384;48.044;11.616;2022-11-23T08:31:40;2.50;;;1.40;;
18510;SDS011;9384;48.044;11.616;2022-11-23T08:34:07;1.60;;;1.50;;
18510;SDS011;9384;48.044;11.616;2022-11-23T08:36:34;2.00;;;1.70;;
18510;SDS011;9384;48.044;11.616;2022-11-23T08:39:02;1.60;;;1.60;;
18510;SDS011;9384;48.044;11.616;2022-11-23T08:41:29;1.83;;;1.73;;
18510;SDS011;9384;48.044;11.616;2022-11-23T08:43:56;2.83;;;1.97;;
18510;SDS011;9384;48.044;11.616;2022-11-23T08:46:24;4.63;;;2.10;;
18510;SDS011;9384;48.044;11.616;2022-11-23T08:48:50;3.10;;;1.80;;
18510;SDS011;9384;48.044;11.616;2022-11-23T08:51:17;5.87;;;1.70;;
18510;SDS011;9384;48.044;11.616;2022-11-23T08:53:46;1.63;;;1.40;;
18510;SDS011;9384;48.044;11.616;2022-11-23T08:56:14;6.60;;;2.07;;
18510;SDS011;9384;48.044;11.616;2022-11-23T08:58:41;3.90;;;0.80;;
18510;SDS011;9384;48.044;11.616;2022-11-23T09:01:08;1.13;;;0.90;;
18510;SDS011;9384;48.044;11.616;2022-11-23T09:03:37;1.47;;;1.37;;
18510;SDS011;9384;48.044;11.616;2022-11-23T09:06:04;1.90;;;0.90;;
18510;SDS011;9384;48.044;11.616;2022-11-23T09:08:32;1.17;;;1.17;;
18510;SDS011;9384;48.044;11.616;2022-11-23T09:10:59;0.87;;;0.70;;
18510;SDS011;9384;48.044;11.616;2022-11-23T09:13:26;0.93;;;0.90;;
18510;SDS011;9384;48.044;11.616;2022-11-23T09:15:55;3.20;;;1.20;;
18510;SDS011;9384;48.044;11.616;2022-11-23T09:18:23;1.70;;;1.33;;
18510;SDS011;9384;48.044;11.616;2022-11-23T09:20:52;5.50;;;1.60;;
18510;SDS011;9384;48.044;11.616;2022-11-23T09:23:18;3.40;;;1.10;;
18510;SDS011;9384;48.044;11.616;2022-11-23T09:25:45;1.90;;;1.20;;
18510;SDS011;9384;48.044;11.616;2022-11-23T09:28:14;1.00;;;1.00;;
18510;SDS011;9384;48.044;11.616;2022-11-23T09:30:43;1.33;;;1.10;;
18510;SDS011;9384;48.044;11.616;2022-11-23T09:33:11;1.60;;;1.40;;
18510;SDS011;9384;48.044;11.616;2022-11-23T09:35:38;2.90;;;1.60;;
18510;SDS011;9384;48.044;11.616;2022-11-23T09:38:06;1.63;;;1.53;;
18510;SDS011;9384;48.044;11.616;2022-11-23T09:40:35;1.47;;;1.37;;
18510;SDS011;9384;48.044;11.616;2022-11-23T09:43:15;1.50;;;1.20;;
18510;SDS011;9384;48.044;11.616;2022-11-23T09:46:07;2.40;;;1.40;;
18510;SDS011;9384;48.044;11.616;2022-11-23T09:48:43;2.10;;;1.30;;
18510;SDS011;9384;48.044;11.616;2022-11-23T09:51:22;3.60;;;1.50;;
18510;SDS011;9384;48.044;11.616;2022-11-23T09:53:51;1.33;;;1.10;;
18510;SDS011;9384;48.044;11.616;2022-11-23T09:56:21;2.07;;;1.23;;
18510;SDS011;9384;48.044;11.616;2022-11-23T09:58:53;1.70;;;0.80;;
18510;SDS011;9384;48.044;11.616;2022-11-23T10:01:20;1.50;;;0.90;;
18510;SDS011;9384;48.044;11.616;2022-11-23T10:03:48;0.93;;;0.93;;
18510;SDS011;9384;48.044;11.616;2022-11-23T10:06:16;2.73;;;0.97;;
18510;SDS011;9384;48.044;11.616;2022-11-23T10:08:45;2.37;;;1.03;;
18510;SDS011;9384;48.044;11.616;2022-11-23T10:14:03;1.90;;;1.00;;
18510;SDS011;9384;48.044;11.616;2022-11-23T10:16:36;6.37;;;1.03;;
18510;SDS011;9384;48.044;11.616;2022-11-23T10:19:09;1.07;;;0.87;;
18510;SDS011;9384;48.044;11.616;2022-11-23T10:21:38;0.77;;;0.60;;
18510;SDS011;9384;48.044;11.616;2022-11-23T10:24:10;0.70;;;0.70;;
18510;SDS011;9384;48.044;11.616;2022-11-23T10:26:40;2.07;;;0.70;;
18510;SDS011;9384;48.044;11.616;2022-11-23T10:29:10;1.17;;;0.90;;
18510;SDS011;9384;48.044;11.616;2022-11-23T10:31:38;3.20;;;0.90;;
18510;SDS011;9384;48.044;11.616;2022-11-23T10:34:08;1.83;;;0.87;;
18510;SDS011;9384;48.044;11.616;2022-11-23T10:36:36;2.10;;;0.80;;
18510;SDS011;9384;48.044;11.616;2022-11-23T10:39:13;1.93;;;0.80;;
18510;SDS011;9384;48.044;11.616;2022-11-23T10:41:43;0.70;;;0.70;;
18510;SDS011;9384;48.044;11.616;2022-11-23T10:44:14;2.57;;;0.73;;
18510;SDS011;9384;48.044;11.616;2022-11-23T10:46:44;2.80;;;0.70;;
18510;SDS011;9384;48.044;11.616;2022-11-23T10:49:14;2.87;;;0.90;;
18510;SDS011;9384;48.044;11.616;2022-11-23T10:51:49;1.10;;;0.70;;
18510;SDS011;9384;48.044;11.616;2022-11-23T10:54:17;1.23;;;0.90;;
18510;SDS011;9384;48.044;11.616;2022-11-23T10:56:45;2.03;;;0.70;;
18510;SDS011;9384;48.044;11.616;2022-11-23T10:59:25;2.43;;;0.83;;
18510;SDS011;9384;48.044;11.616;2022-11-23T11:02:00;3.13;;;1.00;;
18510;SDS011;9384;48.044;11.616;2022-11-23T11:04:27;1.30;;;0.90;;
18510;SDS011;9384;48.044;11.616;2022-11-23T11:07:08;1.03;;;0.80;;
18510;SDS011;9384;48.044;11.616;2022-11-23T11:09:36;0.77;;;0.70;;
18510;SDS011;9384;48.044;11.616;2022-11-23T11:12:03;1.80;;;0.80;;
18510;SDS011;9384;48.044;11.616;2022-11-23T11:14:31;2.77;;;0.93;;
18510;SDS011;9384;48.044;11.616;2022-11-23T11:16:59;2.10;;;1.07;;
18510;SDS011;9384;48.044;11.616;2022-11-23T11:19:26;1.07;;;0.90;;
18510;SDS011;9384;48.044;11.616;2022-11-23T11:21:53;0.63;;;0.63;;
18510;SDS011;9384;48.044;11.616;2022-11-23T11:24:22;2.83;;;1.37;;
18510;SDS011;9384;48.044;11.616;2022-11-23T11:26:51;0.70;;;0.70;;
18510;SDS011;9384;48.044;11.616;2022-11-23T11:29:25;2.63;;;0.90;;
18510;SDS011;9384;48.044;11.616;2022-11-23T11:31:56;3.90;;;0.90;;
18510;SDS011;9384;48.044;11.616;2022-11-23T11:34:27;2.53;;;0.90;;
18510;SDS011;9384;48.044;11.616;2022-11-23T11:36:57;2.23;;;1.00;;
18510;SDS011;9384;48.044;11.616;2022-11-23T11:39:27;0.73;;;0.73;;
18510;SDS011;9384;48.044;11.616;2022-11-23T11:41:57;3.13;;;0.57;;
18510;SDS011;9384;48.044;11.616;2022-11-23T11:44:26;2.30;;;1.10;;
18510;SDS011;9384;48.044;11.616;2022-11-23T11:46:56;0.70;;;0.70;;
18510;SDS011;9384;48.044;11.616;2022-11-23T11:49:27;2.87;;;1.17;;
18510;SDS011;9384;48.044;11.616;2022-11-23T11:51:57;1.57;;;0.97;;
18510;SDS011;9384;48.044;11.616;2022-11-23T11:54:28;1.87;;;0.90;;
18510;SDS011;9384;48.044;11.616;2022-11-23T11:56:59;2.63;;;0.87;;
18510;SDS011;9384;48.044;11.616;2022-11-23T11:59:28;1.80;;;1.10;;
18510;SDS011;9384;48.044;11.616;2022-11-23T12:01:59;3.37;;;0.90;;
18510;SDS011;9384;48.044;11.616;2022-11-23T12:04:29;0.97;;;0.90;;
18510;SDS011;9384;48.044;11.616;2022-11-23T12:07:01;1.13;;;0.83;;
18510;SDS011;9384;48.044;11.616;2022-11-23T12:09:31;1.03;;;1.00;;
18510;SDS011;9384;48.044;11.616;2022-11-23T12:12:11;1.07;;;0.80;;
18510;SDS011;9384;48.044;11.616;2022-11-23T12:14:39;0.73;;;0.73;;
18510;SDS011;9384;48.044;11.616;2022-11-23T12:17:08;1.37;;;0.90;;
18510;SDS011;9384;48.044;11.616;2022-11-23T12:19:37;0.80;;;0.80;;
18510;SDS011;9384;48.044;11.616;2022-11-23T12:22:09;5.20;;;1.00;;
18510;SDS011;9384;48.044;11.616;2022-11-23T12:24:43;1.03;;;0.90;;
18510;SDS011;9384;48.044;11.616;2022-11-23T12:27:16;4.73;;;1.00;;
18510;SDS011;9384;48.044;11.616;2022-11-23T12:29:50;1.90;;;0.90;;
18510;SDS011;9384;48.044;11.616;2022-11-23T12:32:24;1.80;;;0.67;;
18510;SDS011;9384;48.044;11.616;2022-11-23T12:35:00;2.53;;;0.90;;
18510;SDS011;9384;48.044;11.616;2022-11-23T12:37:36;0.60;;;0.60;;
18510;SDS011;9384;48.044;11.616;2022-11-23T12:40:10;1.90;;;0.90;;
18510;SDS011;9384;48.044;11.616;2022-11-23T12:42:40;2.60;;;1.20;;
18510;SDS011;9384;48.044;11.616;2022-11-23T12:45:15;1.37;;;0.80;;
18510;SDS011;9384;48.044;11.616;2022-11-23T12:47:46;2.17;;;1.00;;
18510;SDS011;9384;48.044;11.616;2022-11-23T12:50:18;1.20;;;0.80;;
18510;SDS011;9384;48.044;11.616;2022-11-23T12:52:53;0.73;;;0.73;;
18510;SDS011;9384;48.044;11.616;2022-11-23T12:55:22;0.83;;;0.83;;
18510;SDS011;9384;48.044;11.616;2022-11-23T12:57:51;1.57;;;0.63;;
18510;SDS011;9384;48.044;11.616;2022-11-23T13:00:21;8.13;;;0.87;;
18510;SDS011;9384;48.044;11.616;2022-11-23T13:05:45;2.10;;;1.07;;
18510;SDS011;9384;48.044;11.616;2022-11-23T13:08:31;0.80;;;0.80;;
18510;SDS011;9384;48.044;11.616;2022-11-23T13:11:05;1.47;;;0.50;;
18510;SDS011;9384;48.044;11.616;2022-11-23T13:13:38;2.27;;;0.80;;
18510;SDS011;9384;48.044;11.616;2022-11-23T13:16:28;1.53;;;0.90;;
18510;SDS011;9384;48.044;11.616;2022-11-23T13:19:09;0.73;;;0.73;;
18510;SDS011;9384;48.044;11.616;2022-11-23T13:21:42;1.23;;;1.00;;
18510;SDS011;9384;48.044;11.616;2022-11-23T13:29:53;0.80;;;0.80;;
18510;SDS011;9384;48.044;11.616;2022-11-23T13:38:17;1.93;;;1.20;;
18510;SDS011;9384;48.044;11.616;2022-11-23T13:40:49;1.10;;;0.90;;
18510;SDS011;9384;48.044;11.616;2022-11-23T13:43:17;3.93;;;0.90;;
18510;SDS011;9384;48.044;11.616;2022-11-23T13:45:45;1.43;;;0.70;;
18510;SDS011;9384;48.044;11.616;2022-11-23T13:48:13;1.03;;;1.03;;
18510;SDS011;9384;48.044;11.616;2022-11-23T13:53:27;2.23;;;0.90;;
18510;SDS011;9384;48.044;11.616;2022-11-23T13:55:55;0.93;;;0.90;;
18510;SDS011;9384;48.044;11.616;2022-11-23T13:58:38;0.80;;;0.80;;
18510;SDS011;9384;48.044;11.616;2022-11-23T14:01:05;0.87;;;0.87;;
18510;SDS011;9384;48.044;11.616;2022-11-23T14:03:46;1.90;;;1.10;;
18510;SDS011;9384;48.044;11.616;2022-11-23T14:06:15;1.50;;;1.10;;
18510;SDS011;9384;48.044;11.616;2022-11-23T14:08:48;1.20;;;1.03;;
18510;SDS011;9384;48.044;11.616;2022-11-23T14:11:18;2.10;;;1.03;;
18510;SDS011;9384;48.044;11.616;2022-11-23T14:13:47;1.07;;;1.00;;
18510;SDS011;9384;48.044;11.616;2022-11-23T14:16:20;1.60;;;1.50;;
18510;SDS011;9384;48.044;11.616;2022-11-23T14:18:55;1.13;;;1.03;;
18510;SDS011;9384;48.044;11.616;2022-11-23T14:21:28;2.43;;;1.20;;
18510;SDS011;9384;48.044;11.616;2022-11-23T14:24:06;1.33;;;1.10;;
18510;SDS011;9384;48.044;11.616;2022-11-23T14:26:37;3.27;;;1.50;;
18510;SDS011;9384;48.044;11.616;2022-11-23T14:29:26;2.60;;;1.60;;
18510;SDS011;9384;48.044;11.616;2022-11-23T14:32:07;1.50;;;1.40;;
18510;SDS011;9384;48.044;11.616;2022-11-23T14:34:43;1.73;;;1.50;;
18510;SDS011;9384;48.044;11.616;2022-11-23T14:37:15;1.50;;;1.30;;
18510;SDS011;9384;48.044;11.616;2022-11-23T14:42:39;1.43;;;1.33;;
18510;SDS011;9384;48.044;11.616;2022-11-23T14:45:10;4.93;;;1.40;;
18510;SDS011;9384;48.044;11.616;2022-11-23T14:47:39;2.13;;;1.90;;
18510;SDS011;9384;48.044;11.616;2022-11-23T14:50:18;1.40;;;1.30;;
18510;SDS011;9384;48.044;11.616;2022-11-23T14:52:46;5.10;;;2.03;;
18510;SDS011;9384;48.044;11.616;2022-11-23T14:55:16;1.60;;;1.60;;
18510;SDS011;9384;48.044;11.616;2022-11-23T14:57:45;1.80;;;1.70;;
18510;SDS011;9384;48.044;11.616;2022-11-23T15:00:22;1.70;;;1.67;;
18510;SDS011;9384;48.044;11.616;2022-11-23T15:02:52;2.13;;;1.93;;
18510;SDS011;9384;48.044;11.616;2022-11-23T15:05:22;4.20;;;1.80;;
18510;SDS011;9384;48.044;11.616;2022-11-23T15:07:52;4.83;;;2.03;;
18510;SDS011;9384;48.044;11.616;2022-11-23T15:10:29;3.70;;;1.80;;
18510;SDS011;9384;48.044;11.616;2022-11-23T15:13:01;1.77;;;1.67;;
18510;SDS011;9384;48.044;11.616;2022-11-23T15:15:48;1.57;;;1.43;;
18510;SDS011;9384;48.044;11.616;2022-11-23T15:18:27;4.17;;;1.77;;
18510;SDS011;9384;48.044;11.616;2022-11-23T15:20:56;2.20;;;1.90;;
18510;SDS011;9384;48.044;11.616;2022-11-23T15:23:26;3.87;;;1.90;;
18510;SDS011;9384;48.044;11.616;2022-11-23T15:26:01;4.17;;;1.97;;